24hr Temperature Data

Temp.
(°C)
Wind Chill
(°C)
Dew Point
(°C)
Solar Hours
(hh:mm)
Solar Radiation
(w/m2)
Min
6.4 2.2 -111.4 00:00 0.0
Max
12.6 12.9 -110.7 00:00 0.0
Range
6.2 10.7 0.7 n/a 0
Mode
8.8 3.2 -111.3 00:00 0.0
Median
8.6 6.4 -111.1 00:00 0.0
Mean
8.9 6.6 -111.1 n/a 0
Std. Dev
1.6 2.5 2.9 n/a 0
Temp.
(°C)
Wind Chill
(°C)
Dew Point
(°C)
Solar Hours
(hh:mm)
Solar Radiation
(w/m2)
20/02 17:32 6.6 3 -111.3 00:00 0.0
20/02 17:31 6.8 3.2 -111.3 00:00 0.0
20/02 17:30 6.8 3.3 -111.3 00:00 0.0
20/02 17:27 6.8 3.3 -111.3 00:00 0.0
20/02 17:26 6.8 3.3 -111.3 00:00 0.0
20/02 17:25 6.8 3.3 -111.3 00:00 0.0
20/02 17:24 6.8 3.3 -111.3 00:00 0.0
20/02 17:23 6.8 3.4 -111.3 00:00 0.0
20/02 17:21 6.8 3.5 -111.3 00:00 0.0
20/02 17:20 6.8 3.5 -111.3 00:00 0.0
20/02 17:18 6.8 3.6 -111.3 00:00 0.0
20/02 17:17 6.6 3.4 -111.3 00:00 0.0
20/02 17:16 6.6 3.4 -111.3 00:00 0.0
20/02 17:15 6.6 3.4 -111.3 00:00 0.0
20/02 17:14 6.6 3.4 -111.3 00:00 0.0
20/02 17:13 6.6 3.4 -111.3 00:00 0.0
20/02 17:12 6.6 3.4 -111.3 00:00 0.0
20/02 17:11 6.6 3.4 -111.3 00:00 0.0
20/02 17:10 6.6 3.4 -111.3 00:00 0.0
20/02 17:08 6.4 3.1 -111.4 00:00 0.0
20/02 17:07 6.6 3.4 -111.3 00:00 0.0
20/02 17:06 6.4 3.2 -111.4 00:00 0.0
20/02 17:05 6.6 3.4 -111.3 00:00 0.0
20/02 17:03 6.6 3.3 -111.3 00:00 0.0
20/02 17:02 6.6 3.3 -111.3 00:00 0.0
20/02 17:00 6.8 3.5 -111.3 00:00 0.0
20/02 16:59 6.8 3.5 -111.3 00:00 0.0
20/02 16:58 6.8 3.5 -111.3 00:00 0.0
20/02 16:57 6.8 3.5 -111.3 00:00 0.0
20/02 16:56 6.8 3.5 -111.3 00:00 0.0
20/02 16:55 6.8 3.5 -111.3 00:00 0.0
20/02 16:54 6.8 3.5 -111.3 00:00 0.0
20/02 16:53 6.8 3.6 -111.3 00:00 0.0
20/02 16:52 6.8 3.6 -111.3 00:00 0.0
20/02 16:51 7.0 3.9 -111.3 00:00 0.0
20/02 16:50 7.0 3.9 -111.3 00:00 0.0
20/02 16:49 6.8 3.6 -111.3 00:00 0.0
20/02 16:48 6.8 3.6 -111.3 00:00 0.0
20/02 16:47 6.8 3.6 -111.3 00:00 0.0
20/02 16:46 6.8 3.6 -111.3 00:00 0.0
20/02 16:45 6.8 3.7 -111.3 00:00 0.0
20/02 16:44 6.8 3.6 -111.3 00:00 0.0
20/02 16:43 6.8 3.6 -111.3 00:00 0.0
20/02 16:42 6.8 3.6 -111.3 00:00 0.0
20/02 16:41 6.8 3.5 -111.3 00:00 0.0
20/02 16:40 7.0 3.8 -111.3 00:00 0.0
20/02 16:39 7.0 3.8 -111.3 00:00 0.0
20/02 16:38 7.0 3.8 -111.3 00:00 0.0
20/02 16:37 7.2 4 -111.3 00:00 0.0
20/02 16:36 7.2 3.9 -111.3 00:00 0.0
20/02 16:35 7.2 3.9 -111.3 00:00 0.0
20/02 13:14 8.0 4.8 -111.2 00:00 0.0
20/02 13:13 8.0 4.8 -111.2 00:00 0.0
20/02 13:12 8.0 4.8 -111.2 00:00 0.0
20/02 13:11 8.0 4.7 -111.2 00:00 0.0
20/02 13:10 8.0 4.7 -111.2 00:00 0.0
20/02 13:08 7.8 4.6 -111.2 00:00 0.0
20/02 13:07 7.8 4.6 -111.2 00:00 0.0
20/02 13:06 7.8 4.7 -111.2 00:00 0.0
20/02 13:05 7.8 4.7 -111.2 00:00 0.0
20/02 13:04 7.8 4.8 -111.2 00:00 0.0
20/02 13:03 7.8 4.8 -111.2 00:00 0.0
20/02 13:02 8.0 5.1 -111.2 00:00 0.0
20/02 13:01 8.0 5.2 -111.2 00:00 0.0
20/02 13:00 8.0 5.1 -111.2 00:00 0.0
20/02 12:59 7.8 4.9 -111.2 00:00 0.0
20/02 12:58 7.8 4.7 -111.2 00:00 0.0
20/02 12:57 7.8 4.7 -111.2 00:00 0.0
20/02 12:56 7.6 4.4 -111.2 00:00 0.0
20/02 12:55 7.6 4.3 -111.2 00:00 0.0
20/02 12:54 7.6 4.3 -111.2 00:00 0.0
20/02 12:53 7.4 4.1 -111.3 00:00 0.0
20/02 12:52 7.4 4 -111.3 00:00 0.0
20/02 12:51 7.4 4 -111.3 00:00 0.0
20/02 12:50 7.4 4 -111.3 00:00 0.0
20/02 12:49 7.4 4 -111.3 00:00 0.0
20/02 12:48 7.6 4.4 -111.2 00:00 0.0
20/02 12:47 7.4 4.2 -111.3 00:00 0.0
20/02 12:46 7.6 4.4 -111.2 00:00 0.0
20/02 12:45 7.6 4.5 -111.2 00:00 0.0
20/02 12:43 7.6 4.5 -111.2 00:00 0.0
20/02 12:42 7.6 4.5 -111.2 00:00 0.0
20/02 12:40 7.8 4.7 -111.2 00:00 0.0
20/02 12:39 7.6 4.5 -111.2 00:00 0.0
20/02 12:38 7.6 4.4 -111.2 00:00 0.0
20/02 12:37 7.6 4.4 -111.2 00:00 0.0
20/02 12:36 7.6 4.3 -111.2 00:00 0.0
20/02 12:35 7.6 4.2 -111.2 00:00 0.0
20/02 12:34 7.6 4.2 -111.2 00:00 0.0
20/02 12:33 7.6 4.2 -111.2 00:00 0.0
20/02 12:32 7.6 4.2 -111.2 00:00 0.0
20/02 12:31 7.4 4 -111.3 00:00 0.0
20/02 12:30 7.4 3.9 -111.3 00:00 0.0
20/02 12:29 7.4 3.9 -111.3 00:00 0.0
20/02 12:28 7.4 3.9 -111.3 00:00 0.0
20/02 12:27 7.2 3.6 -111.3 00:00 0.0
20/02 12:26 7.2 3.6 -111.3 00:00 0.0
20/02 12:25 7.4 3.9 -111.3 00:00 0.0
20/02 12:24 7.4 3.9 -111.3 00:00 0.0
20/02 12:23 7.4 3.9 -111.3 00:00 0.0
20/02 12:22 7.4 3.9 -111.3 00:00 0.0
20/02 12:21 7.4 3.8 -111.3 00:00 0.0
20/02 12:20 7.4 3.8 -111.3 00:00 0.0
20/02 12:18 7.4 3.6 -111.3 00:00 0.0
20/02 12:17 7.4 3.6 -111.3 00:00 0.0
20/02 12:16 7.4 3.6 -111.3 00:00 0.0
20/02 12:15 7.4 3.5 -111.3 00:00 0.0
20/02 12:14 7.4 3.5 -111.3 00:00 0.0
20/02 12:13 7.4 3.5 -111.3 00:00 0.0
20/02 12:12 7.4 3.4 -111.3 00:00 0.0
20/02 12:11 7.6 3.7 -111.2 00:00 0.0
20/02 12:10 7.6 3.7 -111.2 00:00 0.0
20/02 12:09 7.6 3.8 -111.2 00:00 0.0
20/02 12:08 7.6 3.8 -111.2 00:00 0.0
20/02 12:07 7.4 3.5 -111.3 00:00 0.0
20/02 12:05 7.4 3.6 -111.3 00:00 0.0
20/02 12:04 7.4 3.6 -111.3 00:00 0.0
20/02 12:03 7.4 3.6 -111.3 00:00 0.0
20/02 12:02 7.4 3.6 -111.3 00:00 0.0
20/02 12:01 7.4 3.6 -111.3 00:00 0.0
20/02 12:00 7.6 3.9 -111.2 00:00 0.0
20/02 11:59 7.4 3.6 -111.3 00:00 0.0
20/02 11:58 7.4 3.6 -111.3 00:00 0.0
20/02 11:57 7.4 3.6 -111.3 00:00 0.0
20/02 11:56 7.6 3.8 -111.2 00:00 0.0
20/02 11:55 7.6 3.8 -111.2 00:00 0.0
20/02 11:54 7.6 3.8 -111.2 00:00 0.0
20/02 11:53 7.6 3.8 -111.2 00:00 0.0
20/02 11:52 7.6 3.9 -111.2 00:00 0.0
20/02 11:51 7.6 3.8 -111.2 00:00 0.0
20/02 11:50 7.6 3.8 -111.2 00:00 0.0
20/02 11:49 7.6 3.9 -111.2 00:00 0.0
20/02 11:48 7.6 3.9 -111.2 00:00 0.0
20/02 11:47 7.6 3.9 -111.2 00:00 0.0
20/02 11:46 7.6 4 -111.2 00:00 0.0
20/02 11:45 7.6 4.1 -111.2 00:00 0.0
20/02 11:44 7.6 4.1 -111.2 00:00 0.0
20/02 11:43 7.6 4.1 -111.2 00:00 0.0
20/02 11:42 7.6 4.2 -111.2 00:00 0.0
20/02 11:41 7.6 4.2 -111.2 00:00 0.0
20/02 11:40 7.6 4.3 -111.2 00:00 0.0
20/02 11:39 7.4 4 -111.3 00:00 0.0
20/02 11:38 7.6 4.2 -111.2 00:00 0.0
20/02 11:37 7.6 4.2 -111.2 00:00 0.0
20/02 11:36 7.6 4.2 -111.2 00:00 0.0
20/02 11:35 7.6 4.1 -111.2 00:00 0.0
20/02 11:34 7.6 4.1 -111.2 00:00 0.0
20/02 11:33 7.4 3.8 -111.3 00:00 0.0
20/02 11:32 7.4 3.8 -111.3 00:00 0.0
20/02 11:31 7.4 3.8 -111.3 00:00 0.0
20/02 11:30 7.2 3.7 -111.3 00:00 0.0
20/02 11:29 7.2 3.7 -111.3 00:00 0.0
20/02 11:27 7.2 3.6 -111.3 00:00 0.0
20/02 11:26 7.2 3.7 -111.3 00:00 0.0
20/02 11:25 7.2 3.8 -111.3 00:00 0.0
20/02 11:24 7.4 4.1 -111.3 00:00 0.0
20/02 11:23 7.4 4.2 -111.3 00:00 0.0
20/02 11:22 7.4 4.1 -111.3 00:00 0.0
20/02 11:21 7.2 3.8 -111.3 00:00 0.0
20/02 11:20 7.2 3.7 -111.3 00:00 0.0
20/02 11:19 7.2 3.6 -111.3 00:00 0.0
20/02 11:18 7.2 3.7 -111.3 00:00 0.0
20/02 11:17 7.2 3.7 -111.3 00:00 0.0
20/02 11:16 7.2 3.6 -111.3 00:00 0.0
20/02 11:15 7.2 3.5 -111.3 00:00 0.0
20/02 11:14 7.2 3.5 -111.3 00:00 0.0
20/02 11:13 7.0 3.2 -111.3 00:00 0.0
20/02 11:12 7.0 3.3 -111.3 00:00 0.0
20/02 11:11 7.2 3.5 -111.3 00:00 0.0
20/02 11:10 7.2 3.6 -111.3 00:00 0.0
20/02 11:09 7.2 3.6 -111.3 00:00 0.0
20/02 11:08 7.2 3.5 -111.3 00:00 0.0
20/02 11:07 7.2 3.5 -111.3 00:00 0.0
20/02 11:06 7.2 3.6 -111.3 00:00 0.0
20/02 11:04 7.2 3.6 -111.3 00:00 0.0
20/02 11:02 7.0 3.2 -111.3 00:00 0.0
20/02 11:01 7.2 3.5 -111.3 00:00 0.0
20/02 11:00 7.2 3.4 -111.3 00:00 0.0
20/02 10:59 7.2 3.4 -111.3 00:00 0.0
20/02 10:58 7.2 3.4 -111.3 00:00 0.0
20/02 10:57 7.0 3.1 -111.3 00:00 0.0
20/02 10:56 7.0 3.1 -111.3 00:00 0.0
20/02 10:55 7.2 3.4 -111.3 00:00 0.0
20/02 10:54 7.0 3.2 -111.3 00:00 0.0
20/02 10:53 7.0 3.2 -111.3 00:00 0.0
20/02 10:52 7.0 3.3 -111.3 00:00 0.0
20/02 10:51 7.0 3.3 -111.3 00:00 0.0
20/02 10:49 7.0 3.4 -111.3 00:00 0.0
20/02 10:48 7.0 3.3 -111.3 00:00 0.0
20/02 10:47 7.0 3.3 -111.3 00:00 0.0
20/02 10:46 7.0 3.3 -111.3 00:00 0.0
20/02 10:45 7.0 3.3 -111.3 00:00 0.0
20/02 10:44 7.0 3.3 -111.3 00:00 0.0
20/02 10:43 7.0 3.2 -111.3 00:00 0.0
20/02 10:42 6.8 3 -111.3 00:00 0.0
20/02 10:41 6.8 3 -111.3 00:00 0.0
20/02 10:40 6.8 3 -111.3 00:00 0.0
20/02 10:39 7.0 3.2 -111.3 00:00 0.0
20/02 10:37 7.0 3.2 -111.3 00:00 0.0
20/02 10:36 7.0 3.3 -111.3 00:00 0.0
20/02 10:35 7.0 3.3 -111.3 00:00 0.0
20/02 10:34 7.0 3.3 -111.3 00:00 0.0
20/02 10:33 7.0 3.4 -111.3 00:00 0.0
20/02 10:32 7.0 3.4 -111.3 00:00 0.0
20/02 10:31 7.0 3.3 -111.3 00:00 0.0
20/02 10:30 7.0 3.3 -111.3 00:00 0.0
20/02 10:29 7.0 3.3 -111.3 00:00 0.0
20/02 10:28 7.2 3.6 -111.3 00:00 0.0
20/02 10:27 7.2 3.6 -111.3 00:00 0.0
20/02 10:26 7.2 3.6 -111.3 00:00 0.0
20/02 10:24 7.2 3.5 -111.3 00:00 0.0
20/02 10:23 7.0 3.2 -111.3 00:00 0.0
20/02 10:22 7.0 3.2 -111.3 00:00 0.0
20/02 10:21 7.0 3.1 -111.3 00:00 0.0
20/02 10:20 7.0 3.1 -111.3 00:00 0.0
20/02 10:19 7.0 3.1 -111.3 00:00 0.0
20/02 10:18 7.0 3.2 -111.3 00:00 0.0
20/02 10:17 7.0 3.2 -111.3 00:00 0.0
20/02 10:16 7.0 3.2 -111.3 00:00 0.0
20/02 10:15 7.0 3.2 -111.3 00:00 0.0
20/02 10:14 7.0 3.2 -111.3 00:00 0.0
20/02 10:13 7.0 3.3 -111.3 00:00 0.0
20/02 10:11 7.0 3.4 -111.3 00:00 0.0
20/02 10:10 7.0 3.4 -111.3 00:00 0.0
20/02 10:09 7.0 3.4 -111.3 00:00 0.0
20/02 10:08 7.0 3.4 -111.3 00:00 0.0
20/02 10:07 7.0 3.3 -111.3 00:00 0.0
20/02 10:06 7.0 3.2 -111.3 00:00 0.0
20/02 10:05 7.0 3.2 -111.3 00:00 0.0
20/02 10:04 7.0 3.1 -111.3 00:00 0.0
20/02 10:03 7.0 3.1 -111.3 00:00 0.0
20/02 10:02 7.0 3.1 -111.3 00:00 0.0
20/02 10:01 7.0 3.2 -111.3 00:00 0.0
20/02 10:00 7.0 3.2 -111.3 00:00 0.0
20/02 09:59 7.0 3.2 -111.3 00:00 0.0
20/02 09:58 6.8 3 -111.3 00:00 0.0
20/02 09:57 6.8 3 -111.3 00:00 0.0
20/02 09:56 6.8 3.1 -111.3 00:00 0.0
20/02 09:55 6.8 3.1 -111.3 00:00 0.0
20/02 09:54 6.8 3.1 -111.3 00:00 0.0
20/02 09:53 6.8 3 -111.3 00:00 0.0
20/02 09:52 7.0 3.2 -111.3 00:00 0.0
20/02 09:51 6.8 2.9 -111.3 00:00 0.0
20/02 09:50 6.8 2.9 -111.3 00:00 0.0
20/02 09:49 6.8 3 -111.3 00:00 0.0
20/02 09:48 6.8 3 -111.3 00:00 0.0
20/02 09:47 7.0 3.2 -111.3 00:00 0.0
20/02 09:46 7.0 3.3 -111.3 00:00 0.0
20/02 09:45 6.8 3.1 -111.3 00:00 0.0
20/02 09:44 7.0 3.4 -111.3 00:00 0.0
20/02 09:43 7.0 3.4 -111.3 00:00 0.0
20/02 09:42 6.8 3.2 -111.3 00:00 0.0
20/02 09:41 7.0 3.6 -111.3 00:00 0.0
20/02 09:40 7.0 3.6 -111.3 00:00 0.0
20/02 09:39 6.8 3.3 -111.3 00:00 0.0
20/02 09:38 6.8 3.3 -111.3 00:00 0.0
20/02 09:37 6.8 3.3 -111.3 00:00 0.0
20/02 09:36 7.0 3.6 -111.3 00:00 0.0
20/02 09:35 6.8 3.3 -111.3 00:00 0.0
20/02 09:33 6.8 3.2 -111.3 00:00 0.0
20/02 09:32 6.8 3.2 -111.3 00:00 0.0
20/02 09:31 6.8 3.2 -111.3 00:00 0.0
20/02 09:30 6.8 3.2 -111.3 00:00 0.0
20/02 09:29 6.8 3.2 -111.3 00:00 0.0
20/02 09:28 6.8 3.2 -111.3 00:00 0.0
20/02 09:27 6.8 3.2 -111.3 00:00 0.0
20/02 09:26 6.8 3.2 -111.3 00:00 0.0
20/02 09:25 6.8 3.2 -111.3 00:00 0.0
20/02 09:24 6.8 3.2 -111.3 00:00 0.0
20/02 09:23 6.8 3.2 -111.3 00:00 0.0
20/02 09:22 6.8 3.2 -111.3 00:00 0.0
20/02 09:21 6.8 3.2 -111.3 00:00 0.0
20/02 09:20 6.8 3.2 -111.3 00:00 0.0
20/02 09:19 6.8 3.1 -111.3 00:00 0.0
20/02 09:18 6.8 3.1 -111.3 00:00 0.0
20/02 09:17 6.8 3.1 -111.3 00:00 0.0
20/02 09:16 6.6 2.9 -111.3 00:00 0.0
20/02 09:15 6.6 2.9 -111.3 00:00 0.0
20/02 09:14 6.8 3.2 -111.3 00:00 0.0
20/02 09:13 6.8 3.2 -111.3 00:00 0.0
20/02 09:12 6.8 3.1 -111.3 00:00 0.0
20/02 09:11 6.6 2.9 -111.3 00:00 0.0
20/02 09:10 6.6 2.9 -111.3 00:00 0.0
20/02 09:09 6.8 3.1 -111.3 00:00 0.0
20/02 09:08 6.8 3.1 -111.3 00:00 0.0
20/02 09:07 6.8 3.1 -111.3 00:00 0.0
20/02 09:06 6.8 3.1 -111.3 00:00 0.0
20/02 09:05 6.8 3.1 -111.3 00:00 0.0
20/02 09:04 6.8 3.1 -111.3 00:00 0.0
20/02 09:03 6.8 3.1 -111.3 00:00 0.0
20/02 09:02 6.8 3.1 -111.3 00:00 0.0
20/02 09:01 6.8 3.1 -111.3 00:00 0.0
20/02 09:00 6.8 3.1 -111.3 00:00 0.0
20/02 08:59 6.8 3.2 -111.3 00:00 0.0
20/02 08:58 6.8 3.2 -111.3 00:00 0.0
20/02 08:57 6.8 3.2 -111.3 00:00 0.0
20/02 08:55 6.8 3.2 -111.3 00:00 0.0
20/02 08:53 6.6 3 -111.3 00:00 0.0
20/02 08:52 6.6 3.1 -111.3 00:00 0.0
20/02 08:51 6.6 3.1 -111.3 00:00 0.0
20/02 08:50 6.6 3.1 -111.3 00:00 0.0
20/02 08:49 6.6 3.1 -111.3 00:00 0.0
20/02 08:48 6.6 3.2 -111.3 00:00 0.0
20/02 08:47 6.6 3.2 -111.3 00:00 0.0
20/02 08:46 6.6 3.2 -111.3 00:00 0.0
20/02 08:45 6.6 3.2 -111.3 00:00 0.0
20/02 08:44 6.6 3.2 -111.3 00:00 0.0
20/02 08:42 6.4 3 -111.4 00:00 0.0
20/02 08:41 6.6 3.3 -111.3 00:00 0.0
20/02 08:40 6.6 3.3 -111.3 00:00 0.0
20/02 08:39 6.6 3.3 -111.3 00:00 0.0
19/02 17:43 12.2 10.9 -110.8 00:00 0.0
19/02 17:42 12.2 10.9 -110.8 00:00 0.0
19/02 17:41 12.2 11 -110.8 00:00 0.0
19/02 17:40 12.2 11 -110.8 00:00 0.0
19/02 17:39 12.2 11 -110.8 00:00 0.0
19/02 17:38 12.2 11 -110.8 00:00 0.0
19/02 17:37 12.4 11.2 -110.8 00:00 0.0
19/02 17:35 12.2 11 -110.8 00:00 0.0
19/02 17:34 12.2 11.1 -110.8 00:00 0.0
19/02 17:33 12.2 11.1 -110.8 00:00 0.0
19/02 17:32 12.2 11.1 -110.8 00:00 0.0
19/02 17:30 12.2 11 -110.8 00:00 0.0
19/02 17:28 12.2 11.1 -110.8 00:00 0.0
19/02 17:26 12.4 11.2 -110.8 00:00 0.0
19/02 17:24 12.4 11.2 -110.8 00:00 0.0
19/02 17:22 12.4 11.3 -110.8 00:00 0.0
19/02 17:21 12.4 11.3 -110.8 00:00 0.0
19/02 17:20 12.4 11.3 -110.8 00:00 0.0
19/02 17:19 12.4 11.3 -110.8 00:00 0.0
19/02 17:18 12.4 11.3 -110.8 00:00 0.0
19/02 17:17 12.4 11.2 -110.8 00:00 0.0
19/02 17:16 12.4 11.3 -110.8 00:00 0.0
19/02 17:15 12.4 11.3 -110.8 00:00 0.0
19/02 17:14 12.4 11.3 -110.8 00:00 0.0
19/02 17:13 12.4 11.2 -110.8 00:00 0.0
19/02 17:12 12.4 11.1 -110.8 00:00 0.0
19/02 17:11 12.4 11 -110.8 00:00 0.0
19/02 17:10 12.4 11 -110.8 00:00 0.0
19/02 17:09 12.4 11 -110.8 00:00 0.0
19/02 17:08 12.4 11.1 -110.8 00:00 0.0
19/02 17:07 12.4 11.1 -110.8 00:00 0.0
19/02 17:06 12.4 11.2 -110.8 00:00 0.0
19/02 17:05 12.4 11.1 -110.8 00:00 0.0
19/02 17:04 12.4 11.1 -110.8 00:00 0.0
19/02 17:03 12.4 11.1 -110.8 00:00 0.0
19/02 17:02 12.4 11.1 -110.8 00:00 0.0
19/02 17:01 12.4 11.2 -110.8 00:00 0.0
19/02 17:00 12.4 11.2 -110.8 00:00 0.0
19/02 16:57 12.4 11.1 -110.8 00:00 0.0
19/02 16:56 12.4 11.1 -110.8 00:00 0.0
19/02 16:55 12.6 11.4 -110.7 00:00 0.0
19/02 16:54 12.4 11.2 -110.8 00:00 0.0
19/02 16:53 12.4 11.3 -110.8 00:00 0.0
19/02 16:51 12.6 11.6 -110.7 00:00 0.0
19/02 16:50 12.4 11.4 -110.8 00:00 0.0
19/02 16:49 12.4 11.4 -110.8 00:00 0.0
19/02 16:48 12.4 11.4 -110.8 00:00 0.0
19/02 16:47 12.4 11.5 -110.8 00:00 0.0
19/02 16:46 12.4 11.4 -110.8 00:00 0.0
19/02 16:45 12.6 11.6 -110.7 00:00 0.0
19/02 16:43 12.4 11.3 -110.8 00:00 0.0
19/02 16:42 12.4 11.4 -110.8 00:00 0.0
19/02 16:41 12.6 11.7 -110.7 00:00 0.0
19/02 16:40 12.6 11.6 -110.7 00:00 0.0
19/02 16:39 12.4 11.3 -110.8 00:00 0.0
19/02 16:38 12.4 11.3 -110.8 00:00 0.0
19/02 16:37 12.6 11.6 -110.7 00:00 0.0
19/02 16:36 12.4 11.4 -110.8 00:00 0.0
19/02 16:34 12.6 11.6 -110.7 00:00 0.0
19/02 16:32 12.4 11.5 -110.8 00:00 0.0
19/02 16:30 12.4 11.5 -110.8 00:00 0.0
19/02 16:29 12.6 11.8 -110.7 00:00 0.0
19/02 16:28 12.6 11.8 -110.7 00:00 0.0
19/02 16:26 12.6 11.8 -110.7 00:00 0.0
19/02 16:25 12.6 11.8 -110.7 00:00 0.0
19/02 16:24 12.6 11.8 -110.7 00:00 0.0
19/02 16:23 12.4 11.6 -110.8 00:00 0.0
19/02 16:22 12.6 11.7 -110.7 00:00 0.0
19/02 16:21 12.6 11.7 -110.7 00:00 0.0
19/02 16:19 12.6 11.6 -110.7 00:00 0.0
19/02 16:18 12.6 11.6 -110.7 00:00 0.0
19/02 16:17 12.6 11.5 -110.7 00:00 0.0
19/02 16:15 12.6 11.5 -110.7 00:00 0.0
19/02 16:14 12.6 11.6 -110.7 00:00 0.0
19/02 16:13 12.6 11.5 -110.7 00:00 0.0
19/02 16:12 12.6 11.6 -110.7 00:00 0.0
19/02 16:10 12.6 11.6 -110.7 00:00 0.0
19/02 16:09 12.6 11.6 -110.7 00:00 0.0
19/02 16:08 12.6 11.6 -110.7 00:00 0.0
19/02 16:06 12.6 11.7 -110.7 00:00 0.0
19/02 16:05 12.6 11.7 -110.7 00:00 0.0
19/02 16:04 12.4 11.4 -110.8 00:00 0.0
19/02 16:03 12.4 11.4 -110.8 00:00 0.0
19/02 16:02 12.4 11.5 -110.8 00:00 0.0
19/02 16:00 12.4 11.5 -110.8 00:00 0.0
19/02 15:58 12.4 11.5 -110.8 00:00 0.0
19/02 15:56 12.4 11.5 -110.8 00:00 0.0
19/02 15:55 12.4 11.5 -110.8 00:00 0.0
19/02 15:54 12.4 11.6 -110.8 00:00 0.0
19/02 15:53 12.4 11.6 -110.8 00:00 0.0
19/02 15:52 12.4 11.5 -110.8 00:00 0.0
19/02 15:51 12.4 11.4 -110.8 00:00 0.0
19/02 15:50 12.2 11.2 -110.8 00:00 0.0
19/02 15:32 12.2 11.1 -110.8 00:00 0.0
19/02 15:31 12.2 11.1 -110.8 00:00 0.0
19/02 15:30 12.4 11.4 -110.8 00:00 0.0
19/02 15:29 12.4 11.4 -110.8 00:00 0.0
19/02 15:28 12.2 11.2 -110.8 00:00 0.0
19/02 15:27 12.2 11.2 -110.8 00:00 0.0
19/02 15:26 12.2 11.2 -110.8 00:00 0.0
19/02 15:25 12.2 11.2 -110.8 00:00 0.0
19/02 15:24 12.2 11.1 -110.8 00:00 0.0
19/02 15:23 12.2 11.2 -110.8 00:00 0.0
19/02 15:22 12.2 11.1 -110.8 00:00 0.0
19/02 15:21 12.2 11.1 -110.8 00:00 0.0
19/02 15:20 12.2 11.1 -110.8 00:00 0.0
19/02 15:19 12.2 11 -110.8 00:00 0.0
19/02 15:18 12.2 10.9 -110.8 00:00 0.0
19/02 15:16 12.0 10.6 -110.8 00:00 0.0
19/02 15:14 12.2 11 -110.8 00:00 0.0
19/02 15:13 12.2 11 -110.8 00:00 0.0
19/02 15:12 12.2 11.1 -110.8 00:00 0.0
19/02 15:11 12.2 11.1 -110.8 00:00 0.0
19/02 11:09 8.6 8.2 -111.1 00:00 0.0
19/02 11:08 8.6 8.1 -111.1 00:00 0.0
19/02 11:04 8.4 7.6 -111.2 00:00 0.0
19/02 11:02 8.4 7.6 -111.2 00:00 0.0
19/02 11:01 8.4 7.5 -111.2 00:00 0.0
19/02 11:00 8.4 7.4 -111.2 00:00 0.0
19/02 10:59 8.4 7.3 -111.2 00:00 0.0
19/02 10:58 8.2 7 -111.2 00:00 0.0
19/02 10:57 8.2 7 -111.2 00:00 0.0
19/02 10:56 8.2 7.1 -111.2 00:00 0.0
19/02 10:53 8.2 7.1 -111.2 00:00 0.0
19/02 10:51 8.0 6.8 -111.2 00:00 0.0
19/02 10:50 8.0 6.8 -111.2 00:00 0.0
19/02 10:49 8.0 7 -111.2 00:00 0.0
19/02 10:47 8.0 7 -111.2 00:00 0.0
19/02 10:46 7.8 6.8 -111.2 00:00 0.0
19/02 10:45 7.8 6.7 -111.2 00:00 0.0
19/02 10:44 8.0 7 -111.2 00:00 0.0
19/02 10:39 8.0 7.3 -111.2 00:00 0.0
19/02 10:36 8.0 7.4 -111.2 00:00 0.0
19/02 10:35 8.0 7.4 -111.2 00:00 0.0
19/02 10:34 8.0 7.3 -111.2 00:00 0.0
19/02 10:32 7.8 7 -111.2 00:00 0.0
19/02 10:29 7.8 6.8 -111.2 00:00 0.0
19/02 10:28 7.8 6.8 -111.2 00:00 0.0
19/02 10:26 7.8 6.6 -111.2 00:00 0.0
19/02 10:25 7.8 6.6 -111.2 00:00 0.0
19/02 10:22 7.8 6.5 -111.2 00:00 0.0
19/02 10:21 7.8 6.4 -111.2 00:00 0.0
19/02 10:20 7.8 6.4 -111.2 00:00 0.0
19/02 10:19 7.8 6.4 -111.2 00:00 0.0
19/02 10:16 7.8 6.4 -111.2 00:00 0.0
19/02 10:14 7.8 6.5 -111.2 00:00 0.0
19/02 10:13 7.6 6.2 -111.2 00:00 0.0
19/02 10:12 7.6 6.2 -111.2 00:00 0.0
19/02 10:10 7.8 6.6 -111.2 00:00 0.0
19/02 10:09 7.8 6.7 -111.2 00:00 0.0
19/02 10:07 7.6 6.5 -111.2 00:00 0.0
19/02 10:05 7.8 6.9 -111.2 00:00 0.0
19/02 10:03 7.6 6.7 -111.2 00:00 0.0
19/02 10:01 7.8 7 -111.2 00:00 0.0
19/02 10:00 7.6 6.7 -111.2 00:00 0.0
19/02 09:58 7.6 6.7 -111.2 00:00 0.0
19/02 09:57 7.8 6.8 -111.2 00:00 0.0
19/02 09:56 7.6 6.5 -111.2 00:00 0.0
19/02 09:55 7.6 6.5 -111.2 00:00 0.0
19/02 09:54 7.6 6.5 -111.2 00:00 0.0
19/02 09:53 7.6 6.5 -111.2 00:00 0.0
19/02 09:49 7.6 6.4 -111.2 00:00 0.0
19/02 09:47 7.6 6.4 -111.2 00:00 0.0
19/02 09:45 7.6 6.3 -111.2 00:00 0.0
19/02 09:44 7.6 6.2 -111.2 00:00 0.0
19/02 09:42 7.6 6.2 -111.2 00:00 0.0
19/02 09:41 7.6 6.1 -111.2 00:00 0.0
19/02 09:40 7.6 6.1 -111.2 00:00 0.0
19/02 09:39 7.6 6.1 -111.2 00:00 0.0
19/02 09:38 7.4 5.9 -111.3 00:00 0.0
19/02 09:36 7.6 6.1 -111.2 00:00 0.0
19/02 09:35 7.6 6.1 -111.2 00:00 0.0
19/02 09:34 7.6 6.1 -111.2 00:00 0.0
19/02 09:33 7.6 6 -111.2 00:00 0.0
19/02 09:30 7.4 5.8 -111.3 00:00 0.0
19/02 09:29 7.4 5.8 -111.3 00:00 0.0
19/02 09:28 7.4 5.8 -111.3 00:00 0.0
19/02 09:27 7.4 5.8 -111.3 00:00 0.0
19/02 09:25 7.2 5.4 -111.3 00:00 0.0
19/02 09:23 7.2 5.5 -111.3 00:00 0.0
19/02 09:22 7.2 5.5 -111.3 00:00 0.0
19/02 09:21 7.2 5.5 -111.3 00:00 0.0
19/02 09:20 7.2 5.5 -111.3 00:00 0.0
19/02 09:17 7.2 5.4 -111.3 00:00 0.0
19/02 09:15 7.2 5.4 -111.3 00:00 0.0
19/02 09:14 7.0 5.1 -111.3 00:00 0.0
19/02 09:12 7.0 5.1 -111.3 00:00 0.0
19/02 09:11 7.0 5.1 -111.3 00:00 0.0
19/02 09:10 7.0 5.1 -111.3 00:00 0.0
19/02 09:08 7.0 5.2 -111.3 00:00 0.0
18/02 15:15 8.0 5.1 -111.2 00:00 0.0
18/02 15:14 8.0 5.2 -111.2 00:00 0.0
18/02 15:13 8.0 5.2 -111.2 00:00 0.0
18/02 15:12 8.0 5.3 -111.2 00:00 0.0
18/02 15:11 8.0 5.2 -111.2 00:00 0.0
18/02 15:10 8.0 5.2 -111.2 00:00 0.0
18/02 15:09 8.0 5.2 -111.2 00:00 0.0
18/02 15:07 8.0 5.2 -111.2 00:00 0.0
18/02 15:06 8.0 5.4 -111.2 00:00 0.0
18/02 15:05 8.0 5.5 -111.2 00:00 0.0
18/02 15:04 8.0 5.5 -111.2 00:00 0.0
18/02 15:03 8.2 5.8 -111.2 00:00 0.0
18/02 15:01 8.2 5.7 -111.2 00:00 0.0
18/02 15:00 8.2 5.7 -111.2 00:00 0.0
18/02 14:59 8.2 5.7 -111.2 00:00 0.0
18/02 14:58 8.2 5.7 -111.2 00:00 0.0
18/02 14:57 8.2 5.7 -111.2 00:00 0.0
18/02 14:56 8.2 5.7 -111.2 00:00 0.0
18/02 14:55 8.2 5.6 -111.2 00:00 0.0
18/02 14:54 8.2 5.6 -111.2 00:00 0.0
18/02 14:53 8.2 5.6 -111.2 00:00 0.0
18/02 14:52 8.2 5.6 -111.2 00:00 0.0
18/02 14:51 8.2 5.6 -111.2 00:00 0.0
18/02 14:50 8.2 5.5 -111.2 00:00 0.0
18/02 14:49 8.2 5.4 -111.2 00:00 0.0
18/02 14:48 8.2 5.3 -111.2 00:00 0.0
18/02 14:47 8.2 5.3 -111.2 00:00 0.0
18/02 14:46 8.2 5.2 -111.2 00:00 0.0
18/02 14:45 8.2 5.2 -111.2 00:00 0.0
18/02 14:44 8.4 5.4 -111.2 00:00 0.0
18/02 14:42 8.4 5.4 -111.2 00:00 0.0
18/02 14:41 8.4 5.5 -111.2 00:00 0.0
18/02 14:40 8.4 5.6 -111.2 00:00 0.0
18/02 14:39 8.4 5.6 -111.2 00:00 0.0
18/02 14:38 8.4 5.6 -111.2 00:00 0.0
18/02 14:37 8.4 5.7 -111.2 00:00 0.0
18/02 14:36 8.4 5.7 -111.2 00:00 0.0
18/02 14:35 8.4 5.8 -111.2 00:00 0.0
18/02 14:34 8.4 5.8 -111.2 00:00 0.0
18/02 14:33 8.4 5.7 -111.2 00:00 0.0
18/02 14:32 8.4 5.8 -111.2 00:00 0.0
18/02 14:31 8.4 5.7 -111.2 00:00 0.0
18/02 14:30 8.4 5.8 -111.2 00:00 0.0
18/02 14:29 8.4 5.8 -111.2 00:00 0.0
18/02 14:28 8.4 5.8 -111.2 00:00 0.0
18/02 14:27 8.4 5.7 -111.2 00:00 0.0
18/02 14:26 8.4 5.7 -111.2 00:00 0.0
18/02 14:25 8.4 5.6 -111.2 00:00 0.0
18/02 14:24 8.4 5.7 -111.2 00:00 0.0
18/02 14:23 8.4 5.7 -111.2 00:00 0.0
18/02 14:22 8.4 5.7 -111.2 00:00 0.0
18/02 14:21 8.4 5.8 -111.2 00:00 0.0
18/02 14:20 8.4 5.8 -111.2 00:00 0.0
18/02 14:19 8.4 5.7 -111.2 00:00 0.0
18/02 14:18 8.4 5.8 -111.2 00:00 0.0
18/02 14:17 8.4 5.8 -111.2 00:00 0.0
18/02 14:16 8.4 5.8 -111.2 00:00 0.0
18/02 13:04 9.4 6.6 -111.1 00:00 0.0
18/02 13:03 9.4 6.6 -111.1 00:00 0.0
18/02 13:01 9.4 6.6 -111.1 00:00 0.0
18/02 13:00 9.4 6.6 -111.1 00:00 0.0
18/02 12:59 9.4 6.7 -111.1 00:00 0.0
18/02 12:58 9.4 6.7 -111.1 00:00 0.0
18/02 12:57 9.4 6.6 -111.1 00:00 0.0
18/02 12:56 9.4 6.7 -111.1 00:00 0.0
18/02 12:55 9.6 7 -111 00:00 0.0
18/02 12:54 9.6 7 -111 00:00 0.0
18/02 12:53 9.6 6.9 -111 00:00 0.0
18/02 12:52 9.6 6.9 -111 00:00 0.0
18/02 12:51 9.4 6.6 -111.1 00:00 0.0
18/02 12:50 9.6 6.9 -111 00:00 0.0
18/02 12:49 9.4 6.7 -111.1 00:00 0.0
18/02 12:48 9.4 6.7 -111.1 00:00 0.0
18/02 12:47 9.4 6.7 -111.1 00:00 0.0
18/02 12:46 9.4 6.7 -111.1 00:00 0.0
18/02 12:45 9.4 6.7 -111.1 00:00 0.0
18/02 12:44 9.4 6.8 -111.1 00:00 0.0
18/02 12:43 9.4 6.8 -111.1 00:00 0.0
18/02 12:42 9.4 6.8 -111.1 00:00 0.0
18/02 12:41 9.4 6.8 -111.1 00:00 0.0
18/02 12:40 9.4 6.8 -111.1 00:00 0.0
18/02 12:39 9.4 6.7 -111.1 00:00 0.0
18/02 12:38 9.2 6.5 -111.1 00:00 0.0
18/02 12:37 9.2 6.6 -111.1 00:00 0.0
18/02 12:36 9.2 6.6 -111.1 00:00 0.0
18/02 12:35 9.4 6.9 -111.1 00:00 0.0
18/02 12:34 9.4 7 -111.1 00:00 0.0
18/02 12:33 9.4 7 -111.1 00:00 0.0
18/02 12:32 9.4 7 -111.1 00:00 0.0
18/02 12:31 9.4 7 -111.1 00:00 0.0
18/02 12:30 9.4 6.9 -111.1 00:00 0.0
18/02 12:29 9.2 6.7 -111.1 00:00 0.0
18/02 12:28 9.2 6.7 -111.1 00:00 0.0
18/02 12:27 9.2 6.7 -111.1 00:00 0.0
18/02 12:26 9.2 6.6 -111.1 00:00 0.0
18/02 12:25 9.0 6.4 -111.1 00:00 0.0
18/02 12:23 9.0 6.5 -111.1 00:00 0.0
18/02 12:22 9.2 6.7 -111.1 00:00 0.0
18/02 12:21 9.2 6.8 -111.1 00:00 0.0
18/02 12:20 9.2 6.9 -111.1 00:00 0.0
18/02 12:19 9.0 6.7 -111.1 00:00 0.0
18/02 12:18 9.0 6.8 -111.1 00:00 0.0
18/02 12:17 9.0 6.8 -111.1 00:00 0.0
18/02 12:16 9.0 6.8 -111.1 00:00 0.0
18/02 12:15 8.8 6.5 -111.1 00:00 0.0
18/02 12:14 8.8 6.5 -111.1 00:00 0.0
18/02 12:13 8.6 6.2 -111.1 00:00 0.0
18/02 12:12 8.6 6.2 -111.1 00:00 0.0
18/02 12:11 8.4 5.8 -111.2 00:00 0.0
18/02 12:10 8.6 6 -111.1 00:00 0.0
18/02 12:09 8.6 6 -111.1 00:00 0.0
18/02 12:08 8.6 6.1 -111.1 00:00 0.0
18/02 12:07 8.6 6.1 -111.1 00:00 0.0
18/02 12:06 8.6 6.1 -111.1 00:00 0.0
18/02 12:05 8.6 6.1 -111.1 00:00 0.0
18/02 12:04 8.8 6.3 -111.1 00:00 0.0
18/02 12:03 8.8 6.3 -111.1 00:00 0.0
18/02 12:02 9.0 6.5 -111.1 00:00 0.0
18/02 12:01 9.2 6.8 -111.1 00:00 0.0
18/02 12:00 9.2 6.8 -111.1 00:00 0.0
18/02 11:58 9.4 6.9 -111.1 00:00 0.0
18/02 11:57 9.4 6.9 -111.1 00:00 0.0
18/02 11:56 9.6 7.1 -111 00:00 0.0
18/02 11:55 9.6 7.1 -111 00:00 0.0
18/02 11:54 9.6 7.2 -111 00:00 0.0
18/02 11:53 9.8 7.5 -111 00:00 0.0
18/02 11:52 9.8 7.5 -111 00:00 0.0
18/02 11:51 9.8 7.4 -111 00:00 0.0
18/02 11:50 9.6 7.2 -111 00:00 0.0
18/02 11:49 9.8 7.5 -111 00:00 0.0
18/02 11:48 10.0 7.8 -111 00:00 0.0
18/02 11:46 10.0 7.8 -111 00:00 0.0
18/02 11:45 10.0 7.8 -111 00:00 0.0
18/02 11:44 10.0 7.8 -111 00:00 0.0
18/02 11:43 10.0 7.8 -111 00:00 0.0
18/02 11:42 10.0 7.7 -111 00:00 0.0
18/02 11:41 10.0 7.8 -111 00:00 0.0
18/02 11:40 10.0 7.8 -111 00:00 0.0
18/02 11:39 10.0 7.8 -111 00:00 0.0
18/02 11:38 10.0 7.7 -111 00:00 0.0
18/02 11:37 10.0 7.8 -111 00:00 0.0
18/02 11:36 10.0 7.8 -111 00:00 0.0
18/02 11:35 9.8 7.6 -111 00:00 0.0
18/02 11:34 9.8 7.6 -111 00:00 0.0
18/02 11:33 9.8 7.7 -111 00:00 0.0
18/02 11:32 9.8 7.6 -111 00:00 0.0
18/02 11:31 9.8 7.6 -111 00:00 0.0
18/02 11:30 9.6 7.3 -111 00:00 0.0
18/02 11:29 9.6 7.4 -111 00:00 0.0
18/02 11:28 9.8 7.7 -111 00:00 0.0
18/02 11:26 9.4 7.2 -111.1 00:00 0.0
18/02 11:25 9.4 7.1 -111.1 00:00 0.0
18/02 11:24 9.2 6.8 -111.1 00:00 0.0
18/02 11:23 9.2 6.8 -111.1 00:00 0.0
18/02 11:22 9.2 6.9 -111.1 00:00 0.0
18/02 11:20 9.0 6.8 -111.1 00:00 0.0
18/02 11:19 9.0 6.8 -111.1 00:00 0.0
18/02 11:18 9.0 6.8 -111.1 00:00 0.0
18/02 11:17 8.8 6.6 -111.1 00:00 0.0
18/02 11:16 8.8 6.5 -111.1 00:00 0.0
18/02 11:15 8.8 6.6 -111.1 00:00 0.0
18/02 11:14 8.8 6.6 -111.1 00:00 0.0
18/02 11:13 8.6 6.4 -111.1 00:00 0.0
18/02 11:12 8.6 6.4 -111.1 00:00 0.0
18/02 11:11 8.4 6.1 -111.2 00:00 0.0
18/02 11:10 8.4 6.1 -111.2 00:00 0.0
18/02 11:09 8.4 6.1 -111.2 00:00 0.0
18/02 11:08 8.4 6.1 -111.2 00:00 0.0
18/02 11:07 8.4 6.2 -111.2 00:00 0.0
18/02 11:06 8.4 6.1 -111.2 00:00 0.0
18/02 11:05 8.4 6.2 -111.2 00:00 0.0
18/02 11:04 8.4 6.2 -111.2 00:00 0.0
18/02 11:03 8.4 6.2 -111.2 00:00 0.0
18/02 11:02 8.4 6.1 -111.2 00:00 0.0
18/02 11:01 8.6 6.4 -111.1 00:00 0.0
18/02 11:00 8.6 6.4 -111.1 00:00 0.0
18/02 10:59 8.6 6.3 -111.1 00:00 0.0
18/02 10:58 8.6 6.3 -111.1 00:00 0.0
18/02 10:57 8.6 6.2 -111.1 00:00 0.0
18/02 10:55 8.6 6.2 -111.1 00:00 0.0
18/02 10:54 8.6 6.2 -111.1 00:00 0.0
18/02 10:53 8.6 6.2 -111.1 00:00 0.0
18/02 10:52 8.8 6.4 -111.1 00:00 0.0
18/02 10:51 8.8 6.3 -111.1 00:00 0.0
18/02 10:50 8.8 6.3 -111.1 00:00 0.0
18/02 10:49 9.0 6.5 -111.1 00:00 0.0
18/02 10:48 9.0 6.5 -111.1 00:00 0.0
18/02 10:47 9.0 6.5 -111.1 00:00 0.0
18/02 10:46 9.0 6.4 -111.1 00:00 0.0
18/02 10:45 9.0 6.3 -111.1 00:00 0.0
18/02 10:44 9.0 6.3 -111.1 00:00 0.0
18/02 10:42 9.2 6.6 -111.1 00:00 0.0
18/02 10:41 9.2 6.5 -111.1 00:00 0.0
18/02 10:40 9.2 6.6 -111.1 00:00 0.0
18/02 10:39 9.4 6.9 -111.1 00:00 0.0
18/02 10:38 9.4 6.9 -111.1 00:00 0.0
18/02 10:37 9.4 6.9 -111.1 00:00 0.0
18/02 10:36 9.6 7.2 -111 00:00 0.0
18/02 10:35 9.6 7.2 -111 00:00 0.0
18/02 10:34 9.4 6.9 -111.1 00:00 0.0
18/02 10:33 9.4 6.9 -111.1 00:00 0.0
18/02 10:32 9.6 7.2 -111 00:00 0.0
18/02 10:31 9.6 7.2 -111 00:00 0.0
18/02 10:30 9.6 7.3 -111 00:00 0.0
18/02 10:29 9.6 7.2 -111 00:00 0.0
18/02 10:28 9.6 7.2 -111 00:00 0.0
18/02 10:27 9.6 7.3 -111 00:00 0.0
18/02 10:26 9.6 7.3 -111 00:00 0.0
18/02 10:25 9.8 7.6 -111 00:00 0.0
18/02 10:24 9.8 7.7 -111 00:00 0.0
18/02 10:23 9.6 7.5 -111 00:00 0.0
18/02 10:22 9.6 7.5 -111 00:00 0.0
18/02 10:21 9.6 7.5 -111 00:00 0.0
18/02 10:20 9.6 7.5 -111 00:00 0.0
18/02 10:19 9.6 7.5 -111 00:00 0.0
18/02 10:17 9.4 7.4 -111.1 00:00 0.0
18/02 10:16 9.6 7.7 -111 00:00 0.0
18/02 10:15 9.6 7.7 -111 00:00 0.0
18/02 10:14 9.4 7.4 -111.1 00:00 0.0
18/02 10:13 9.4 7.4 -111.1 00:00 0.0
18/02 10:12 9.4 7.4 -111.1 00:00 0.0
18/02 10:11 9.2 7.1 -111.1 00:00 0.0
18/02 10:10 9.2 7.1 -111.1 00:00 0.0
18/02 10:09 9.0 6.8 -111.1 00:00 0.0
18/02 10:08 9.0 6.8 -111.1 00:00 0.0
18/02 10:07 9.2 7 -111.1 00:00 0.0
18/02 10:06 9.2 6.9 -111.1 00:00 0.0
18/02 10:04 9.2 7 -111.1 00:00 0.0
18/02 10:03 9.0 6.7 -111.1 00:00 0.0
18/02 10:02 9.0 6.7 -111.1 00:00 0.0
18/02 10:01 9.0 6.7 -111.1 00:00 0.0
18/02 10:00 9.0 6.7 -111.1 00:00 0.0
18/02 09:59 9.0 6.7 -111.1 00:00 0.0
18/02 09:58 8.8 6.6 -111.1 00:00 0.0
18/02 09:57 8.8 6.6 -111.1 00:00 0.0
18/02 09:56 8.8 6.6 -111.1 00:00 0.0
18/02 09:55 8.8 6.6 -111.1 00:00 0.0
18/02 09:54 8.6 6.3 -111.1 00:00 0.0
18/02 09:53 8.6 6.3 -111.1 00:00 0.0
18/02 09:52 8.6 6.4 -111.1 00:00 0.0
18/02 09:51 8.6 6.3 -111.1 00:00 0.0
18/02 09:50 8.6 6.2 -111.1 00:00 0.0
18/02 09:49 8.6 6.1 -111.1 00:00 0.0
18/02 09:48 8.8 6.3 -111.1 00:00 0.0
18/02 09:47 8.8 6.2 -111.1 00:00 0.0
18/02 09:46 8.8 6.2 -111.1 00:00 0.0
18/02 09:45 8.6 5.9 -111.1 00:00 0.0
18/02 09:44 8.6 5.9 -111.1 00:00 0.0
18/02 09:43 8.6 6 -111.1 00:00 0.0
18/02 09:42 8.6 6 -111.1 00:00 0.0
18/02 09:41 8.6 6 -111.1 00:00 0.0
18/02 09:39 8.6 6.1 -111.1 00:00 0.0
18/02 09:38 8.6 6.1 -111.1 00:00 0.0
18/02 09:37 8.4 5.9 -111.2 00:00 0.0
18/02 09:36 8.4 5.9 -111.2 00:00 0.0
18/02 09:35 8.2 5.7 -111.2 00:00 0.0
18/02 09:34 8.2 5.7 -111.2 00:00 0.0
18/02 09:33 8.4 5.9 -111.2 00:00 0.0
18/02 09:32 8.4 5.9 -111.2 00:00 0.0
18/02 09:31 8.4 6 -111.2 00:00 0.0
18/02 09:30 8.4 5.9 -111.2 00:00 0.0
18/02 09:29 8.4 6 -111.2 00:00 0.0
18/02 09:28 8.4 6 -111.2 00:00 0.0
18/02 09:26 8.4 5.9 -111.2 00:00 0.0
18/02 09:25 8.4 6 -111.2 00:00 0.0
18/02 09:24 8.4 6 -111.2 00:00 0.0
18/02 09:23 8.4 5.9 -111.2 00:00 0.0
18/02 09:22 8.4 5.8 -111.2 00:00 0.0
18/02 09:21 8.2 5.6 -111.2 00:00 0.0
18/02 09:20 8.2 5.6 -111.2 00:00 0.0
18/02 09:19 8.2 5.6 -111.2 00:00 0.0
18/02 09:18 8.2 5.6 -111.2 00:00 0.0
18/02 09:17 8.2 5.6 -111.2 00:00 0.0
18/02 09:16 8.2 5.6 -111.2 00:00 0.0
18/02 09:14 8.2 5.5 -111.2 00:00 0.0
18/02 09:13 8.2 5.5 -111.2 00:00 0.0
18/02 09:12 8.2 5.5 -111.2 00:00 0.0
18/02 09:11 8.2 5.5 -111.2 00:00 0.0
18/02 09:10 8.2 5.5 -111.2 00:00 0.0
18/02 09:09 8.2 5.5 -111.2 00:00 0.0
18/02 09:08 8.2 5.5 -111.2 00:00 0.0
18/02 09:07 8.2 5.5 -111.2 00:00 0.0
18/02 09:06 8.2 5.5 -111.2 00:00 0.0
18/02 09:05 8.0 5.1 -111.2 00:00 0.0
18/02 09:04 8.0 5.1 -111.2 00:00 0.0
18/02 09:03 8.0 5.1 -111.2 00:00 0.0
18/02 09:01 8.0 5.1 -111.2 00:00 0.0
18/02 09:00 8.2 5.4 -111.2 00:00 0.0
18/02 08:59 8.0 5.1 -111.2 00:00 0.0
18/02 08:58 8.0 5.2 -111.2 00:00 0.0
18/02 08:57 8.0 5.3 -111.2 00:00 0.0
18/02 08:56 7.8 5.1 -111.2 00:00 0.0
18/02 08:55 7.8 5.1 -111.2 00:00 0.0
18/02 08:54 7.6 5 -111.2 00:00 0.0
18/02 08:53 7.6 5.1 -111.2 00:00 0.0
18/02 08:52 7.6 5.1 -111.2 00:00 0.0
18/02 08:51 7.6 5.2 -111.2 00:00 0.0
18/02 08:50 7.4 5 -111.3 00:00 0.0
18/02 08:49 7.4 5.1 -111.3 00:00 0.0
18/02 08:48 7.4 5 -111.3 00:00 0.0
18/02 08:47 7.4 4.9 -111.3 00:00 0.0
18/02 08:46 7.2 4.6 -111.3 00:00 0.0
18/02 08:45 7.2 4.7 -111.3 00:00 0.0
18/02 08:44 7.2 4.6 -111.3 00:00 0.0
18/02 08:41 7.2 4.5 -111.3 00:00 0.0
18/02 08:40 7.2 4.4 -111.3 00:00 0.0
18/02 08:39 7.2 4.4 -111.3 00:00 0.0
18/02 08:38 7.2 4.4 -111.3 00:00 0.0
18/02 08:36 7.2 4.3 -111.3 00:00 0.0
18/02 08:35 7.2 4.3 -111.3 00:00 0.0
18/02 08:34 7.4 4.5 -111.3 00:00 0.0
18/02 08:33 7.4 4.5 -111.3 00:00 0.0
18/02 08:32 7.4 4.5 -111.3 00:00 0.0
18/02 08:31 7.4 4.5 -111.3 00:00 0.0
18/02 08:29 7.4 4.5 -111.3 00:00 0.0
18/02 08:28 7.4 4.5 -111.3 00:00 0.0
18/02 08:27 7.4 4.5 -111.3 00:00 0.0
18/02 08:26 7.6 4.8 -111.2 00:00 0.0
18/02 08:25 7.6 4.8 -111.2 00:00 0.0
17/02 17:20 7.6 5.2 -111.2 00:00 0.0
17/02 17:19 7.6 5.4 -111.2 00:00 0.0
17/02 17:18 7.6 5.4 -111.2 00:00 0.0
17/02 17:17 7.6 5.5 -111.2 00:00 0.0
17/02 17:16 7.4 5.3 -111.3 00:00 0.0
17/02 17:15 7.4 5.2 -111.3 00:00 0.0
17/02 17:14 7.4 5.1 -111.3 00:00 0.0
17/02 17:13 7.4 5 -111.3 00:00 0.0
17/02 17:12 7.4 5 -111.3 00:00 0.0
17/02 17:11 7.4 5 -111.3 00:00 0.0
17/02 17:10 7.4 5 -111.3 00:00 0.0
17/02 17:09 7.4 5 -111.3 00:00 0.0
17/02 17:08 7.4 4.9 -111.3 00:00 0.0
17/02 17:07 7.4 4.9 -111.3 00:00 0.0
17/02 17:06 7.2 4.6 -111.3 00:00 0.0
17/02 17:05 7.2 4.6 -111.3 00:00 0.0
17/02 17:03 7.2 4.7 -111.3 00:00 0.0
17/02 17:02 7.0 4.5 -111.3 00:00 0.0
17/02 17:01 7.0 4.4 -111.3 00:00 0.0
17/02 17:00 7.2 4.6 -111.3 00:00 0.0
17/02 16:56 7.0 4.3 -111.3 00:00 0.0
17/02 16:55 7.0 4.2 -111.3 00:00 0.0
17/02 16:54 7.0 4.2 -111.3 00:00 0.0
17/02 16:53 7.0 4.2 -111.3 00:00 0.0
17/02 16:52 7.0 4.1 -111.3 00:00 0.0
17/02 16:51 7.0 4 -111.3 00:00 0.0
17/02 16:50 6.8 3.8 -111.3 00:00 0.0
17/02 16:49 6.8 3.7 -111.3 00:00 0.0
17/02 16:48 6.8 3.6 -111.3 00:00 0.0
17/02 16:47 7.0 3.9 -111.3 00:00 0.0
17/02 16:46 7.0 3.8 -111.3 00:00 0.0
17/02 16:45 7.0 3.7 -111.3 00:00 0.0
17/02 16:44 7.0 3.7 -111.3 00:00 0.0
17/02 16:43 7.0 3.6 -111.3 00:00 0.0
17/02 16:42 7.0 3.6 -111.3 00:00 0.0
17/02 16:41 7.0 3.6 -111.3 00:00 0.0
17/02 16:40 7.0 3.5 -111.3 00:00 0.0
17/02 16:38 7.0 3.6 -111.3 00:00 0.0
17/02 16:37 7.0 3.6 -111.3 00:00 0.0
17/02 16:36 6.8 3.3 -111.3 00:00 0.0
17/02 16:35 6.8 3.2 -111.3 00:00 0.0
17/02 16:34 6.8 3.1 -111.3 00:00 0.0
17/02 16:33 6.8 3.1 -111.3 00:00 0.0
17/02 16:32 6.6 2.7 -111.3 00:00 0.0
17/02 16:31 6.6 2.6 -111.3 00:00 0.0
17/02 16:30 6.4 2.3 -111.4 00:00 0.0
17/02 16:29 6.4 2.2 -111.4 00:00 0.0
17/02 16:28 6.4 2.2 -111.4 00:00 0.0
17/02 16:27 6.8 2.7 -111.3 00:00 0.0
17/02 16:25 7.8 4.1 -111.2 00:00 0.0
17/02 16:24 8.0 4.5 -111.2 00:00 0.0
17/02 16:23 8.0 4.5 -111.2 00:00 0.0
17/02 16:22 8.0 4.7 -111.2 00:00 0.0
17/02 16:21 8.0 4.8 -111.2 00:00 0.0
17/02 16:20 8.0 5 -111.2 00:00 0.0
17/02 16:19 8.2 5.4 -111.2 00:00 0.0
17/02 16:18 8.4 5.7 -111.2 00:00 0.0
17/02 16:17 8.4 5.7 -111.2 00:00 0.0
17/02 16:16 8.4 5.7 -111.2 00:00 0.0
17/02 16:15 8.2 5.4 -111.2 00:00 0.0
17/02 16:13 8.4 5.7 -111.2 00:00 0.0
17/02 15:12 9.4 7.1 -111.1 00:00 0.0
17/02 15:11 9.4 7.1 -111.1 00:00 0.0
17/02 15:10 9.4 7.2 -111.1 00:00 0.0
17/02 15:09 9.4 7.2 -111.1 00:00 0.0
17/02 15:08 9.4 7.2 -111.1 00:00 0.0
17/02 15:07 9.4 7.2 -111.1 00:00 0.0
17/02 15:06 9.4 7.2 -111.1 00:00 0.0
17/02 15:05 9.2 6.9 -111.1 00:00 0.0
17/02 15:04 9.2 7 -111.1 00:00 0.0
17/02 15:03 9.2 7 -111.1 00:00 0.0
17/02 15:02 9.2 6.9 -111.1 00:00 0.0
17/02 15:01 9.2 6.9 -111.1 00:00 0.0
17/02 15:00 9.2 6.9 -111.1 00:00 0.0
17/02 14:59 9.2 6.9 -111.1 00:00 0.0
17/02 14:57 9.2 6.8 -111.1 00:00 0.0
17/02 14:56 9.2 6.8 -111.1 00:00 0.0
17/02 14:55 9.0 6.5 -111.1 00:00 0.0
17/02 14:54 9.0 6.4 -111.1 00:00 0.0
17/02 14:53 9.0 6.4 -111.1 00:00 0.0
17/02 14:52 9.0 6.4 -111.1 00:00 0.0
17/02 14:51 8.8 6.2 -111.1 00:00 0.0
17/02 14:50 8.8 6.2 -111.1 00:00 0.0
17/02 14:49 8.8 6.1 -111.1 00:00 0.0
17/02 14:48 8.8 6.1 -111.1 00:00 0.0
17/02 14:47 8.8 6.1 -111.1 00:00 0.0
17/02 14:46 8.8 6.1 -111.1 00:00 0.0
17/02 14:45 8.8 6.2 -111.1 00:00 0.0
17/02 14:44 8.6 6 -111.1 00:00 0.0
17/02 14:43 8.6 6 -111.1 00:00 0.0
17/02 14:42 8.6 6 -111.1 00:00 0.0
17/02 14:41 8.6 6.1 -111.1 00:00 0.0
17/02 14:40 8.4 5.9 -111.2 00:00 0.0
17/02 14:39 8.4 5.9 -111.2 00:00 0.0
17/02 14:38 8.4 5.9 -111.2 00:00 0.0
17/02 14:37 8.2 5.6 -111.2 00:00 0.0
17/02 14:36 8.2 5.6 -111.2 00:00 0.0
17/02 14:35 8.2 5.5 -111.2 00:00 0.0
17/02 14:34 8.0 5.2 -111.2 00:00 0.0
17/02 14:32 8.0 5 -111.2 00:00 0.0
17/02 14:31 7.8 4.6 -111.2 00:00 0.0
17/02 14:30 7.6 4.2 -111.2 00:00 0.0
17/02 14:29 7.4 3.8 -111.3 00:00 0.0
17/02 14:28 7.4 3.7 -111.3 00:00 0.0
17/02 14:27 7.2 3.4 -111.3 00:00 0.0
17/02 14:26 7.2 3.4 -111.3 00:00 0.0
17/02 14:25 7.2 3.3 -111.3 00:00 0.0
17/02 14:24 7.0 3.1 -111.3 00:00 0.0
17/02 14:23 6.8 2.8 -111.3 00:00 0.0
17/02 14:22 6.8 2.8 -111.3 00:00 0.0
17/02 14:20 7.2 3.5 -111.3 00:00 0.0
17/02 14:19 8.0 4.6 -111.2 00:00 0.0
17/02 14:18 8.8 5.8 -111.1 00:00 0.0
17/02 14:17 8.8 5.9 -111.1 00:00 0.0
17/02 14:16 8.8 5.9 -111.1 00:00 0.0
17/02 14:15 8.8 5.9 -111.1 00:00 0.0
17/02 14:14 8.6 5.6 -111.1 00:00 0.0
17/02 14:13 8.6 5.6 -111.1 00:00 0.0
17/02 14:12 8.6 5.6 -111.1 00:00 0.0
17/02 14:11 8.6 5.6 -111.1 00:00 0.0
17/02 14:10 8.6 5.6 -111.1 00:00 0.0
17/02 14:09 8.6 5.6 -111.1 00:00 0.0
17/02 14:07 8.6 5.5 -111.1 00:00 0.0
17/02 14:06 8.4 5.3 -111.2 00:00 0.0
17/02 14:05 8.4 5.3 -111.2 00:00 0.0
17/02 14:04 8.2 5.1 -111.2 00:00 0.0
17/02 14:03 8.2 5.2 -111.2 00:00 0.0
17/02 14:02 8.2 5.2 -111.2 00:00 0.0
17/02 14:01 8.0 5 -111.2 00:00 0.0
17/02 14:00 8.0 5 -111.2 00:00 0.0
17/02 13:59 7.8 4.7 -111.2 00:00 0.0
17/02 13:58 7.8 4.7 -111.2 00:00 0.0
17/02 13:57 7.6 4.4 -111.2 00:00 0.0
17/02 13:56 7.6 4.3 -111.2 00:00 0.0
17/02 13:54 7.2 3.6 -111.3 00:00 0.0
17/02 13:53 7.2 3.4 -111.3 00:00 0.0
17/02 13:52 7.2 3.3 -111.3 00:00 0.0
17/02 13:51 7.2 3.3 -111.3 00:00 0.0
17/02 13:50 7.2 3.3 -111.3 00:00 0.0
17/02 13:49 7.0 3.1 -111.3 00:00 0.0
17/02 13:48 7.2 3.4 -111.3 00:00 0.0
17/02 13:47 7.2 3.5 -111.3 00:00 0.0
17/02 13:46 7.2 3.5 -111.3 00:00 0.0
17/02 13:45 7.6 4.1 -111.2 00:00 0.0
17/02 13:43 9.8 7.3 -111 00:00 0.0
17/02 13:42 10.0 7.7 -111 00:00 0.0
17/02 13:41 10.0 7.7 -111 00:00 0.0
17/02 13:40 10.0 7.7 -111 00:00 0.0
17/02 13:00 10.0 7.6 -111 00:00 0.0
17/02 12:59 10.0 7.6 -111 00:00 0.0
17/02 12:58 9.8 7.3 -111 00:00 0.0
17/02 12:57 9.8 7.2 -111 00:00 0.0
17/02 12:56 9.8 7.2 -111 00:00 0.0
17/02 12:55 9.8 7.2 -111 00:00 0.0
17/02 12:54 9.8 7.2 -111 00:00 0.0
17/02 12:53 9.8 7.3 -111 00:00 0.0
17/02 12:51 9.8 7.3 -111 00:00 0.0
17/02 12:50 9.8 7.4 -111 00:00 0.0
17/02 12:49 10.0 7.7 -111 00:00 0.0
17/02 12:48 9.8 7.4 -111 00:00 0.0
17/02 12:47 9.8 7.4 -111 00:00 0.0
17/02 12:46 9.8 7.4 -111 00:00 0.0
17/02 12:45 9.8 7.3 -111 00:00 0.0
17/02 12:43 10.0 7.6 -111 00:00 0.0
17/02 12:42 10.0 7.6 -111 00:00 0.0
17/02 12:41 9.8 7.3 -111 00:00 0.0
17/02 12:40 9.8 7.3 -111 00:00 0.0
17/02 12:39 9.8 7.2 -111 00:00 0.0
17/02 12:38 10.0 7.6 -111 00:00 0.0
17/02 12:37 10.2 7.9 -111 00:00 0.0
17/02 12:36 10.2 7.9 -111 00:00 0.0
17/02 12:35 10.2 7.9 -111 00:00 0.0
17/02 12:33 10.0 7.5 -111 00:00 0.0
17/02 12:32 10.0 7.5 -111 00:00 0.0
17/02 12:31 10.0 7.4 -111 00:00 0.0
17/02 12:30 10.2 7.7 -111 00:00 0.0
17/02 12:29 10.2 7.7 -111 00:00 0.0
17/02 12:28 10.0 7.5 -111 00:00 0.0
17/02 12:27 10.0 7.5 -111 00:00 0.0
17/02 12:26 10.2 7.9 -111 00:00 0.0
17/02 12:25 10.2 7.9 -111 00:00 0.0
17/02 12:24 10.2 7.9 -111 00:00 0.0
17/02 12:23 10.2 7.9 -111 00:00 0.0
17/02 12:22 10.2 7.9 -111 00:00 0.0
17/02 12:21 10.2 7.9 -111 00:00 0.0
17/02 12:20 10.2 7.9 -111 00:00 0.0
17/02 12:19 10.0 7.7 -111 00:00 0.0
17/02 12:18 10.0 7.7 -111 00:00 0.0
17/02 12:17 10.0 7.7 -111 00:00 0.0
17/02 12:16 10.0 7.7 -111 00:00 0.0
17/02 12:15 10.0 7.7 -111 00:00 0.0
17/02 12:14 10.0 7.8 -111 00:00 0.0
17/02 12:13 10.0 7.8 -111 00:00 0.0
17/02 12:12 10.0 7.8 -111 00:00 0.0
17/02 12:11 10.2 8.1 -111 00:00 0.0
17/02 12:10 10.0 7.8 -111 00:00 0.0
17/02 12:09 10.0 7.8 -111 00:00 0.0
17/02 12:08 9.8 7.5 -111 00:00 0.0
17/02 12:07 9.8 7.4 -111 00:00 0.0
17/02 12:06 9.8 7.4 -111 00:00 0.0
17/02 12:05 9.8 7.3 -111 00:00 0.0
17/02 12:04 9.8 7.3 -111 00:00 0.0
17/02 12:02 9.8 7.4 -111 00:00 0.0
17/02 12:00 9.8 7.4 -111 00:00 0.0
17/02 11:58 9.6 7.1 -111 00:00 0.0
17/02 11:57 9.8 7.4 -111 00:00 0.0
17/02 11:56 9.8 7.4 -111 00:00 0.0
17/02 11:55 9.8 7.4 -111 00:00 0.0
17/02 11:54 9.8 7.4 -111 00:00 0.0
17/02 11:53 9.8 7.5 -111 00:00 0.0
17/02 11:52 9.8 7.5 -111 00:00 0.0
17/02 11:51 9.8 7.5 -111 00:00 0.0
17/02 11:50 9.8 7.5 -111 00:00 0.0
17/02 11:49 9.8 7.6 -111 00:00 0.0
17/02 11:48 9.8 7.7 -111 00:00 0.0
17/02 11:47 9.6 7.5 -111 00:00 0.0
17/02 11:46 9.6 7.6 -111 00:00 0.0
17/02 11:45 9.6 7.6 -111 00:00 0.0
17/02 11:44 9.8 7.8 -111 00:00 0.0
17/02 11:43 9.8 7.8 -111 00:00 0.0
17/02 11:42 9.8 7.8 -111 00:00 0.0
17/02 11:41 9.8 7.8 -111 00:00 0.0
17/02 11:40 9.8 7.9 -111 00:00 0.0
17/02 11:39 9.8 8 -111 00:00 0.0
17/02 11:38 9.8 8 -111 00:00 0.0
17/02 11:37 9.6 7.7 -111 00:00 0.0
17/02 11:36 9.6 7.6 -111 00:00 0.0
17/02 11:35 9.8 7.8 -111 00:00 0.0
17/02 11:34 9.8 7.8 -111 00:00 0.0
17/02 11:33 9.8 7.9 -111 00:00 0.0
17/02 11:32 9.8 7.8 -111 00:00 0.0
17/02 11:31 9.8 7.7 -111 00:00 0.0
17/02 11:30 9.8 7.7 -111 00:00 0.0
17/02 11:29 9.8 7.6 -111 00:00 0.0
17/02 11:28 9.6 7.3 -111 00:00 0.0
17/02 11:27 9.6 7.3 -111 00:00 0.0
17/02 11:26 9.6 7.4 -111 00:00 0.0
17/02 11:25 9.8 7.7 -111 00:00 0.0
17/02 11:24 9.6 7.5 -111 00:00 0.0
17/02 11:22 9.6 7.5 -111 00:00 0.0
17/02 11:21 9.6 7.5 -111 00:00 0.0
17/02 11:20 9.6 7.5 -111 00:00 0.0
17/02 11:18 9.4 7.3 -111.1 00:00 0.0
17/02 11:17 9.4 7.3 -111.1 00:00 0.0
17/02 11:16 9.4 7.3 -111.1 00:00 0.0
17/02 11:15 9.4 7.4 -111.1 00:00 0.0
17/02 11:14 9.4 7.3 -111.1 00:00 0.0
17/02 11:13 9.4 7.3 -111.1 00:00 0.0
17/02 11:12 9.2 7.1 -111.1 00:00 0.0
17/02 11:11 9.2 7.2 -111.1 00:00 0.0
17/02 11:10 9.2 7.2 -111.1 00:00 0.0
17/02 11:09 9.2 7.2 -111.1 00:00 0.0
17/02 11:08 9.2 7.2 -111.1 00:00 0.0
17/02 11:07 9.2 7.1 -111.1 00:00 0.0
17/02 11:06 9.2 7 -111.1 00:00 0.0
17/02 11:05 9.2 7 -111.1 00:00 0.0
17/02 11:04 9.2 6.9 -111.1 00:00 0.0
17/02 11:03 9.2 6.9 -111.1 00:00 0.0
17/02 11:01 9.2 6.8 -111.1 00:00 0.0
17/02 11:00 9.2 6.7 -111.1 00:00 0.0
17/02 10:59 9.0 6.4 -111.1 00:00 0.0
17/02 10:57 9.0 6.5 -111.1 00:00 0.0
17/02 10:56 9.0 6.5 -111.1 00:00 0.0
17/02 10:55 9.0 6.6 -111.1 00:00 0.0
17/02 10:54 9.0 6.6 -111.1 00:00 0.0
17/02 10:53 9.0 6.6 -111.1 00:00 0.0
17/02 10:52 9.0 6.7 -111.1 00:00 0.0
17/02 10:51 9.0 6.7 -111.1 00:00 0.0
17/02 10:50 9.0 6.7 -111.1 00:00 0.0
17/02 10:49 9.0 6.7 -111.1 00:00 0.0
17/02 10:48 9.0 6.7 -111.1 00:00 0.0
17/02 10:47 9.0 6.7 -111.1 00:00 0.0
17/02 10:45 9.0 6.6 -111.1 00:00 0.0
17/02 10:44 9.0 6.6 -111.1 00:00 0.0
17/02 10:43 9.0 6.5 -111.1 00:00 0.0
17/02 10:42 9.0 6.5 -111.1 00:00 0.0
17/02 10:41 9.0 6.6 -111.1 00:00 0.0
17/02 10:40 9.0 6.6 -111.1 00:00 0.0
17/02 10:39 8.8 6.3 -111.1 00:00 0.0
17/02 10:37 8.8 6.3 -111.1 00:00 0.0
17/02 10:36 8.8 6.3 -111.1 00:00 0.0
17/02 10:35 8.8 6.3 -111.1 00:00 0.0
17/02 10:34 8.8 6.4 -111.1 00:00 0.0
17/02 10:32 8.8 6.4 -111.1 00:00 0.0
17/02 10:31 8.8 6.4 -111.1 00:00 0.0
17/02 10:30 8.8 6.4 -111.1 00:00 0.0
17/02 10:29 8.8 6.5 -111.1 00:00 0.0
17/02 10:28 8.8 6.5 -111.1 00:00 0.0
17/02 10:27 8.8 6.4 -111.1 00:00 0.0
17/02 10:26 8.8 6.4 -111.1 00:00 0.0
17/02 10:25 8.8 6.5 -111.1 00:00 0.0
17/02 10:24 8.8 6.4 -111.1 00:00 0.0
17/02 10:23 8.8 6.4 -111.1 00:00 0.0
17/02 10:22 8.8 6.4 -111.1 00:00 0.0
17/02 10:21 8.8 6.4 -111.1 00:00 0.0
17/02 10:19 8.8 6.4 -111.1 00:00 0.0
17/02 10:18 8.8 6.4 -111.1 00:00 0.0
17/02 10:17 8.8 6.4 -111.1 00:00 0.0
17/02 10:16 8.8 6.5 -111.1 00:00 0.0
17/02 10:15 8.8 6.5 -111.1 00:00 0.0
17/02 10:14 8.8 6.5 -111.1 00:00 0.0
17/02 10:11 8.8 6.7 -111.1 00:00 0.0
17/02 10:10 8.8 6.6 -111.1 00:00 0.0
17/02 10:09 8.8 6.6 -111.1 00:00 0.0
17/02 10:08 8.8 6.7 -111.1 00:00 0.0
17/02 10:07 8.8 6.7 -111.1 00:00 0.0
17/02 10:06 8.8 6.7 -111.1 00:00 0.0
17/02 10:05 8.8 6.7 -111.1 00:00 0.0
17/02 10:04 8.6 6.6 -111.1 00:00 0.0
17/02 10:03 8.8 6.8 -111.1 00:00 0.0
17/02 10:02 8.8 6.8 -111.1 00:00 0.0
17/02 10:01 8.8 6.8 -111.1 00:00 0.0
17/02 10:00 8.8 6.8 -111.1 00:00 0.0
17/02 09:59 8.8 6.8 -111.1 00:00 0.0
17/02 09:58 8.8 6.8 -111.1 00:00 0.0
17/02 09:57 8.8 6.7 -111.1 00:00 0.0
17/02 09:56 8.8 6.7 -111.1 00:00 0.0
17/02 09:54 8.8 6.5 -111.1 00:00 0.0
17/02 09:53 8.8 6.6 -111.1 00:00 0.0
17/02 09:52 8.8 6.5 -111.1 00:00 0.0
17/02 09:51 8.8 6.5 -111.1 00:00 0.0
17/02 09:50 8.8 6.5 -111.1 00:00 0.0
17/02 09:49 8.8 6.4 -111.1 00:00 0.0
17/02 09:48 8.8 6.4 -111.1 00:00 0.0
17/02 09:47 8.8 6.5 -111.1 00:00 0.0
17/02 09:46 8.8 6.5 -111.1 00:00 0.0
17/02 09:45 8.8 6.5 -111.1 00:00 0.0
17/02 09:44 8.8 6.4 -111.1 00:00 0.0
17/02 09:43 8.8 6.4 -111.1 00:00 0.0
17/02 09:42 8.8 6.3 -111.1 00:00 0.0
17/02 09:41 8.8 6.3 -111.1 00:00 0.0
17/02 09:40 8.8 6.2 -111.1 00:00 0.0
17/02 09:39 8.8 6.3 -111.1 00:00 0.0
17/02 09:38 8.8 6.3 -111.1 00:00 0.0
17/02 09:37 8.8 6.2 -111.1 00:00 0.0
17/02 09:36 8.8 6.2 -111.1 00:00 0.0
17/02 09:35 8.8 6.2 -111.1 00:00 0.0
17/02 09:34 8.8 6.3 -111.1 00:00 0.0
17/02 09:33 8.8 6.3 -111.1 00:00 0.0
17/02 09:32 8.8 6.3 -111.1 00:00 0.0
17/02 09:30 8.6 6.2 -111.1 00:00 0.0
17/02 09:28 8.8 6.4 -111.1 00:00 0.0
17/02 09:27 8.8 6.4 -111.1 00:00 0.0
17/02 09:26 8.8 6.4 -111.1 00:00 0.0
17/02 09:25 8.8 6.4 -111.1 00:00 0.0
17/02 09:24 8.8 6.4 -111.1 00:00 0.0
17/02 09:23 8.6 6.2 -111.1 00:00 0.0
17/02 09:21 8.6 6.1 -111.1 00:00 0.0
17/02 09:20 8.6 6 -111.1 00:00 0.0
17/02 08:30 8.6 6 -111.1 00:00 0.0
17/02 08:29 8.6 6 -111.1 00:00 0.0
17/02 08:28 8.6 6.1 -111.1 00:00 0.0
17/02 08:27 8.6 6.1 -111.1 00:00 0.0
17/02 08:26 8.6 6.1 -111.1 00:00 0.0
17/02 08:25 8.6 6.2 -111.1 00:00 0.0
17/02 08:24 8.4 6 -111.2 00:00 0.0
17/02 08:23 8.4 6.1 -111.2 00:00 0.0
17/02 08:22 8.6 6.3 -111.1 00:00 0.0
17/02 08:21 8.4 6.1 -111.2 00:00 0.0
17/02 08:20 8.4 6 -111.2 00:00 0.0
17/02 08:19 8.4 6 -111.2 00:00 0.0
17/02 08:18 8.6 6.1 -111.1 00:00 0.0
17/02 08:17 8.6 6 -111.1 00:00 0.0
17/02 08:16 8.6 6 -111.1 00:00 0.0
17/02 08:15 8.6 5.9 -111.1 00:00 0.0
17/02 08:14 8.6 5.9 -111.1 00:00 0.0
17/02 08:13 8.6 5.9 -111.1 00:00 0.0
17/02 08:12 8.6 5.8 -111.1 00:00 0.0
17/02 08:11 8.6 5.7 -111.1 00:00 0.0
17/02 08:10 8.6 5.8 -111.1 00:00 0.0
17/02 08:09 8.6 5.8 -111.1 00:00 0.0
17/02 08:08 8.4 5.7 -111.2 00:00 0.0
17/02 08:07 8.6 5.9 -111.1 00:00 0.0
17/02 08:06 8.4 5.7 -111.2 00:00 0.0
17/02 08:05 8.4 5.7 -111.2 00:00 0.0
17/02 08:04 8.6 6 -111.1 00:00 0.0
17/02 08:03 8.4 5.8 -111.2 00:00 0.0
17/02 08:02 8.4 5.9 -111.2 00:00 0.0
17/02 08:01 8.4 6 -111.2 00:00 0.0
17/02 08:00 8.4 6 -111.2 00:00 0.0
17/02 07:59 8.4 6 -111.2 00:00 0.0
17/02 07:58 8.4 6 -111.2 00:00 0.0
17/02 07:57 8.4 6 -111.2 00:00 0.0
17/02 07:56 8.4 5.9 -111.2 00:00 0.0
17/02 07:55 8.6 6.1 -111.1 00:00 0.0
17/02 07:54 8.6 6.1 -111.1 00:00 0.0
17/02 07:53 8.6 6.2 -111.1 00:00 0.0
17/02 07:52 8.6 6.1 -111.1 00:00 0.0
17/02 07:51 8.6 6.1 -111.1 00:00 0.0
17/02 07:50 8.4 5.9 -111.2 00:00 0.0
17/02 07:49 8.4 5.8 -111.2 00:00 0.0
17/02 07:47 8.6 6.2 -111.1 00:00 0.0
17/02 07:46 8.6 6.2 -111.1 00:00 0.0
17/02 07:45 8.6 6.3 -111.1 00:00 0.0
17/02 07:44 8.6 6.3 -111.1 00:00 0.0
17/02 07:43 8.6 6.3 -111.1 00:00 0.0
17/02 07:42 8.6 6.3 -111.1 00:00 0.0
17/02 07:41 8.6 6.4 -111.1 00:00 0.0
17/02 07:40 8.6 6.4 -111.1 00:00 0.0
17/02 07:39 8.6 6.5 -111.1 00:00 0.0
17/02 07:38 8.6 6.5 -111.1 00:00 0.0
17/02 07:37 8.4 6.2 -111.2 00:00 0.0
17/02 07:36 8.4 6.3 -111.2 00:00 0.0
17/02 07:34 8.6 6.5 -111.1 00:00 0.0
17/02 07:33 8.6 6.6 -111.1 00:00 0.0
17/02 07:32 8.6 6.6 -111.1 00:00 0.0
16/02 12:47 10.2 7.7 -111 00:00 0.0
16/02 12:46 10.4 8 -111 00:00 0.0
16/02 12:45 10.2 7.7 -111 00:00 0.0
16/02 12:43 10.2 7.8 -111 00:00 0.0
16/02 12:42 10.2 7.7 -111 00:00 0.0
16/02 12:41 10.4 8 -111 00:00 0.0
16/02 12:40 10.2 7.8 -111 00:00 0.0
16/02 12:37 10.2 7.7 -111 00:00 0.0
16/02 12:35 10.2 7.7 -111 00:00 0.0
16/02 12:34 10.0 7.5 -111 00:00 0.0
16/02 12:33 10.0 7.5 -111 00:00 0.0
16/02 12:32 10.2 7.8 -111 00:00 0.0
16/02 12:31 10.2 7.9 -111 00:00 0.0
16/02 12:30 10.2 7.8 -111 00:00 0.0
16/02 12:29 10.2 7.8 -111 00:00 0.0
16/02 12:28 10.2 7.8 -111 00:00 0.0
16/02 12:27 10.2 7.9 -111 00:00 0.0
16/02 12:25 10.2 7.9 -111 00:00 0.0
16/02 12:24 10.2 7.8 -111 00:00 0.0
16/02 12:23 10.2 7.8 -111 00:00 0.0
16/02 12:22 10.2 7.9 -111 00:00 0.0
16/02 12:21 10.2 8 -111 00:00 0.0
16/02 12:20 10.2 8 -111 00:00 0.0
16/02 12:19 10.2 8 -111 00:00 0.0
16/02 12:18 10.2 8 -111 00:00 0.0
16/02 12:17 10.2 8 -111 00:00 0.0
16/02 12:16 10.2 8 -111 00:00 0.0
16/02 12:15 10.4 8.3 -111 00:00 0.0
16/02 12:14 10.4 8.3 -111 00:00 0.0
16/02 12:13 10.2 8 -111 00:00 0.0
16/02 12:11 10.2 7.8 -111 00:00 0.0
16/02 12:10 10.2 7.7 -111 00:00 0.0
16/02 12:09 10.2 7.7 -111 00:00 0.0
16/02 12:08 10.2 7.7 -111 00:00 0.0
16/02 12:07 10.2 7.7 -111 00:00 0.0
16/02 12:05 10.2 7.6 -111 00:00 0.0
16/02 12:04 10.2 7.6 -111 00:00 0.0
16/02 12:03 10.4 7.9 -111 00:00 0.0
16/02 12:02 10.4 7.9 -111 00:00 0.0
16/02 12:01 10.4 7.9 -111 00:00 0.0
16/02 12:00 10.4 7.9 -111 00:00 0.0
16/02 11:59 10.4 7.9 -111 00:00 0.0
16/02 11:57 10.4 7.9 -111 00:00 0.0
16/02 11:56 10.4 7.9 -111 00:00 0.0
16/02 11:55 10.4 8 -111 00:00 0.0
16/02 11:54 10.4 8 -111 00:00 0.0
16/02 11:53 10.4 8 -111 00:00 0.0
16/02 11:52 10.4 8 -111 00:00 0.0
16/02 11:51 10.4 8 -111 00:00 0.0
16/02 11:50 10.4 8 -111 00:00 0.0
16/02 11:49 10.4 7.9 -111 00:00 0.0
16/02 11:48 10.4 7.9 -111 00:00 0.0
16/02 11:47 10.4 7.9 -111 00:00 0.0
16/02 11:46 10.4 7.9 -111 00:00 0.0
16/02 11:45 10.4 7.9 -111 00:00 0.0
16/02 11:44 10.2 7.6 -111 00:00 0.0
16/02 11:43 10.2 7.7 -111 00:00 0.0
16/02 11:42 10.2 7.7 -111 00:00 0.0
16/02 11:41 10.2 7.7 -111 00:00 0.0
16/02 11:40 10.2 7.8 -111 00:00 0.0
16/02 11:39 10.0 7.6 -111 00:00 0.0
16/02 11:38 10.2 7.8 -111 00:00 0.0
16/02 11:36 10.2 7.8 -111 00:00 0.0
16/02 11:35 10.2 7.8 -111 00:00 0.0
16/02 11:34 10.2 7.8 -111 00:00 0.0
16/02 11:32 10.2 7.7 -111 00:00 0.0
16/02 11:30 10.2 7.7 -111 00:00 0.0
16/02 11:29 10.0 7.5 -111 00:00 0.0
16/02 11:28 10.0 7.5 -111 00:00 0.0
16/02 11:27 10.0 7.5 -111 00:00 0.0
16/02 11:25 9.8 7.3 -111 00:00 0.0
16/02 11:24 9.8 7.3 -111 00:00 0.0
16/02 11:22 9.8 7.4 -111 00:00 0.0
16/02 11:21 9.6 7.2 -111 00:00 0.0
16/02 11:20 9.6 7.2 -111 00:00 0.0
16/02 11:19 9.6 7.2 -111 00:00 0.0
16/02 11:18 9.6 7.2 -111 00:00 0.0
16/02 11:16 9.6 7.3 -111 00:00 0.0
16/02 11:15 9.6 7.3 -111 00:00 0.0
16/02 11:14 9.6 7.2 -111 00:00 0.0
16/02 11:13 9.8 7.6 -111 00:00 0.0
16/02 11:11 9.8 7.7 -111 00:00 0.0
16/02 11:10 10.0 7.9 -111 00:00 0.0
16/02 11:09 10.0 7.8 -111 00:00 0.0
16/02 11:08 10.0 7.7 -111 00:00 0.0
16/02 11:07 9.8 7.5 -111 00:00 0.0
16/02 11:06 9.6 7.3 -111 00:00 0.0
16/02 11:05 9.6 7.3 -111 00:00 0.0
16/02 11:04 9.8 7.5 -111 00:00 0.0
16/02 11:02 9.6 7.4 -111 00:00 0.0
16/02 11:01 9.6 7.6 -111 00:00 0.0
16/02 11:00 9.6 7.9 -111 00:00 0.0
16/02 10:59 9.6 8.3 -111 00:00 0.0
16/02 10:58 9.6 8.8 -111 00:00 0.0
16/02 10:57 9.6 9.2 -111 00:00 0.0
16/02 10:56 9.4 9.4 -111.1 00:00 0.0
14/02 19:24 10.8 10 -110.9 00:00 0.0
14/02 19:23 11.0 10.3 -110.9 00:00 0.0
14/02 19:22 11.0 10.3 -110.9 00:00 0.0
14/02 19:21 11.0 10.3 -110.9 00:00 0.0
14/02 19:20 11.0 10.4 -110.9 00:00 0.0
14/02 19:19 10.8 10.2 -110.9 00:00 0.0
14/02 19:18 10.8 10.2 -110.9 00:00 0.0
14/02 19:17 11.0 10.4 -110.9 00:00 0.0
14/02 19:16 11.0 10.4 -110.9 00:00 0.0
14/02 19:15 11.0 10.4 -110.9 00:00 0.0
14/02 19:13 11.0 10.4 -110.9 00:00 0.0
14/02 19:12 11.0 10.4 -110.9 00:00 0.0
14/02 19:11 11.0 10.5 -110.9 00:00 0.0
14/02 19:10 11.0 10.5 -110.9 00:00 0.0
14/02 19:09 11.0 10.5 -110.9 00:00 0.0
14/02 19:08 11.0 10.5 -110.9 00:00 0.0
14/02 19:07 11.0 10.4 -110.9 00:00 0.0
14/02 19:06 11.0 10.5 -110.9 00:00 0.0
14/02 19:05 11.0 10.5 -110.9 00:00 0.0
14/02 19:04 11.0 10.5 -110.9 00:00 0.0
14/02 19:03 11.0 10.5 -110.9 00:00 0.0
14/02 19:02 11.0 10.6 -110.9 00:00 0.0
14/02 19:00 11.0 10.5 -110.9 00:00 0.0
14/02 18:59 11.0 10.6 -110.9 00:00 0.0
14/02 18:58 11.0 10.5 -110.9 00:00 0.0
14/02 18:57 11.0 10.5 -110.9 00:00 0.0
14/02 18:56 11.0 10.5 -110.9 00:00 0.0
14/02 18:55 11.2 10.8 -110.9 00:00 0.0
14/02 18:54 11.2 10.8 -110.9 00:00 0.0
14/02 18:53 11.2 10.8 -110.9 00:00 0.0
14/02 18:52 11.0 10.6 -110.9 00:00 0.0
14/02 18:51 11.0 10.6 -110.9 00:00 0.0
14/02 18:50 11.0 10.7 -110.9 00:00 0.0
14/02 18:49 11.0 10.7 -110.9 00:00 0.0
14/02 18:48 11.0 10.7 -110.9 00:00 0.0
14/02 18:47 11.0 10.8 -110.9 00:00 0.0
14/02 18:46 11.0 10.8 -110.9 00:00 0.0
14/02 18:45 11.0 10.9 -110.9 00:00 0.0
14/02 18:44 11.2 11.2 -110.9 00:00 0.0
14/02 18:43 11.0 11 -110.9 00:00 0.0
14/02 18:42 11.0 11.1 -110.9 00:00 0.0
14/02 18:41 11.0 11.1 -110.9 00:00 0.0
14/02 18:40 11.0 11.1 -110.9 00:00 0.0
14/02 18:39 11.0 11.1 -110.9 00:00 0.0
14/02 18:38 11.0 11.2 -110.9 00:00 0.0
14/02 18:37 11.0 11.1 -110.9 00:00 0.0
14/02 18:36 11.0 11.1 -110.9 00:00 0.0
14/02 18:35 11.0 11.1 -110.9 00:00 0.0
14/02 18:34 11.0 11.1 -110.9 00:00 0.0
14/02 18:33 11.0 11.1 -110.9 00:00 0.0
14/02 18:32 11.0 11.1 -110.9 00:00 0.0
14/02 18:31 10.8 11 -110.9 00:00 0.0
14/02 18:30 11.0 11.3 -110.9 00:00 0.0
14/02 18:29 10.8 11.2 -110.9 00:00 0.0
14/02 18:28 11.0 11.4 -110.9 00:00 0.0
14/02 18:27 11.0 11.4 -110.9 00:00 0.0
14/02 18:26 10.8 11.2 -110.9 00:00 0.0
14/02 18:25 10.8 11.2 -110.9 00:00 0.0
14/02 18:24 10.8 11.3 -110.9 00:00 0.0
14/02 18:22 10.8 11.3 -110.9 00:00 0.0
14/02 18:21 10.8 11.3 -110.9 00:00 0.0
14/02 18:20 10.8 11.1 -110.9 00:00 0.0
14/02 18:19 10.8 11.1 -110.9 00:00 0.0
14/02 18:18 10.6 10.8 -110.9 00:00 0.0
14/02 18:17 10.6 10.8 -110.9 00:00 0.0
14/02 18:16 10.6 10.8 -110.9 00:00 0.0
14/02 18:15 10.8 11 -110.9 00:00 0.0
14/02 18:14 10.8 10.9 -110.9 00:00 0.0
14/02 18:13 10.8 10.8 -110.9 00:00 0.0
14/02 18:12 10.8 10.8 -110.9 00:00 0.0
14/02 18:11 10.8 10.9 -110.9 00:00 0.0
14/02 18:10 10.8 11 -110.9 00:00 0.0
14/02 18:09 10.8 11 -110.9 00:00 0.0
14/02 18:08 10.8 11.1 -110.9 00:00 0.0
14/02 18:07 10.6 11 -110.9 00:00 0.0
14/02 18:06 10.6 11.2 -110.9 00:00 0.0
14/02 18:05 10.6 11.4 -110.9 00:00 0.0
14/02 18:04 10.6 11.5 -110.9 00:00 0.0
14/02 18:03 10.6 11.5 -110.9 00:00 0.0
14/02 18:02 10.6 11.5 -110.9 00:00 0.0
14/02 18:01 10.6 11.5 -110.9 00:00 0.0
14/02 18:00 10.6 11.5 -110.9 00:00 0.0
14/02 17:59 10.6 11.6 -110.9 00:00 0.0
14/02 17:58 10.4 11.5 -111 00:00 0.0
14/02 17:57 10.4 11.5 -111 00:00 0.0
14/02 17:56 10.4 11.5 -111 00:00 0.0
14/02 17:55 10.4 11.6 -111 00:00 0.0
14/02 17:54 10.4 11.8 -111 00:00 0.0
14/02 17:53 10.4 12 -111 00:00 0.0
14/02 17:52 10.4 12.2 -111 00:00 0.0
14/02 17:51 10.4 12.5 -111 00:00 0.0
14/02 17:50 10.4 12.6 -111 00:00 0.0
14/02 17:49 10.4 12.7 -111 00:00 0.0
14/02 17:48 10.4 12.7 -111 00:00 0.0
14/02 17:47 10.4 12.9 -111 00:00 0.0
14/02 17:46 10.4 12.9 -111 00:00 0.0
14/02 17:44 10.4 12.6 -111 00:00 0.0
14/02 17:43 10.4 12.5 -111 00:00 0.0
14/02 17:42 10.6 12.4 -110.9 00:00 0.0
14/02 17:41 10.6 12.3 -110.9 00:00 0.0
14/02 17:40 10.6 12.3 -110.9 00:00 0.0
14/02 17:39 10.6 12.2 -110.9 00:00 0.0
14/02 17:38 10.6 12.1 -110.9 00:00 0.0
14/02 17:37 10.8 12.1 -110.9 00:00 0.0
14/02 17:36 10.8 12 -110.9 00:00 0.0
14/02 17:35 10.8 12 -110.9 00:00 0.0
14/02 17:34 10.8 11.7 -110.9 00:00 0.0
14/02 17:33 10.8 11.6 -110.9 00:00 0.0
14/02 17:32 10.8 11.5 -110.9 00:00 0.0
14/02 17:31 10.8 11.4 -110.9 00:00 0.0
14/02 17:30 10.8 11.3 -110.9 00:00 0.0
14/02 17:29 10.8 11.2 -110.9 00:00 0.0
14/02 17:28 10.8 11.1 -110.9 00:00 0.0
14/02 17:27 11.0 11.2 -110.9 00:00 0.0
14/02 17:26 11.0 11 -110.9 00:00 0.0
14/02 17:25 11.2 11.1 -110.9 00:00 0.0
14/02 17:24 11.0 11 -110.9 00:00 0.0
14/02 17:22 11.0 11 -110.9 00:00 0.0
14/02 17:21 11.0 11 -110.9 00:00 0.0



    Load Time 0.102832 seconds